Time;durP1;ratioP1;P1;durP2;ratioP2;P2;SDS_P1;SDS_P2;PMS_P1;PMS_P2;Temp;Humidity;BMP_temperature;BMP_pressure;BME280_temperature;BME280_humidity;BME280_pressure;Samples;Min_cycle;Max_cycle;Signal;HPM_P1;HPM_P2
2023/04/13 00:00:45;;;;;;;12.50;1.58;;;6.10;99.90;;;;;;5112685;28;20376;-57
2023/04/13 00:03:15;;;;;;;9.35;1.40;;;6.10;99.90;;;;;;5112573;28;20039;-59
2023/04/13 00:05:45;;;;;;;6.47;1.52;;;6.20;99.90;;;;;;5094859;28;20047;-59
2023/04/13 00:08:15;;;;;;;8.93;0.88;;;6.20;99.90;;;;;;5102021;28;20047;-59
2023/04/13 00:10:44;;;;;;;11.60;1.33;;;6.20;99.90;;;;;;5093330;28;20043;-59
2023/04/13 00:13:13;;;;;;;4.15;0.90;;;6.30;99.90;;;;;;5111472;28;20583;-58
2023/04/13 00:15:42;;;;;;;6.93;1.77;;;6.30;99.90;;;;;;5112597;28;20051;-58
2023/04/13 00:18:10;;;;;;;4.55;0.95;;;6.30;99.90;;;;;;5094029;28;20059;-58
2023/04/13 00:20:40;;;;;;;8.82;1.98;;;6.30;99.90;;;;;;5112421;28;20079;-59
2023/04/13 00:23:08;;;;;;;11.15;1.20;;;6.30;99.90;;;;;;5112089;28;20054;-58
2023/04/13 00:25:36;;;;;;;13.63;1.40;;;6.30;99.90;;;;;;5111837;28;20058;-59
2023/04/13 00:28:05;;;;;;;8.57;1.10;;;6.30;99.90;;;;;;5110133;28;20047;-58
2023/04/13 00:30:33;;;;;;;14.43;1.97;;;6.30;99.90;;;;;;5111974;28;20051;-59
2023/04/13 00:33:04;;;;;;;8.60;1.08;;;6.40;99.90;;;;;;5107208;28;20040;-59
2023/04/13 00:35:32;;;;;;;10.90;1.48;;;6.30;99.90;;;;;;5110892;28;20491;-59
2023/04/13 00:38:03;;;;;;;9.98;1.13;;;6.40;99.90;;;;;;5111661;28;20051;-60
2023/04/13 00:40:38;;;;;;;6.10;1.05;;;6.40;99.90;;;;;;5093976;28;20414;-60
2023/04/13 00:43:06;;;;;;;12.73;2.88;;;6.40;99.90;;;;;;5091331;28;20064;-60
2023/04/13 00:45:38;;;;;;;8.25;0.90;;;6.40;99.90;;;;;;5110700;28;20055;-59
2023/04/13 00:48:10;;;;;;;7.90;0.98;;;6.30;99.90;;;;;;5077976;28;20043;-60
2023/04/13 00:50:40;;;;;;;4.35;1.00;;;6.40;99.90;;;;;;5093456;28;20044;-60
2023/04/13 00:53:11;;;;;;;10.10;1.50;;;6.40;99.90;;;;;;5110334;28;20502;-59
2023/04/13 00:55:41;;;;;;;12.05;1.67;;;6.40;99.90;;;;;;5111403;28;20050;-59
2023/04/13 00:58:09;;;;;;;13.20;1.63;;;6.40;99.90;;;;;;5110945;28;20479;-59
2023/04/13 01:00:37;;;;;;;10.93;1.67;;;6.40;99.90;;;;;;5092241;28;20051;-60
2023/04/13 01:03:06;;;;;;;10.33;1.47;;;6.40;99.90;;;;;;5105363;28;20043;-59
2023/04/13 01:05:50;;;;;;;8.20;1.20;;;6.30;99.90;;;;;;5075563;28;20377;-59
2023/04/13 01:08:28;;;;;;;9.10;1.30;;;6.40;99.90;;;;;;5094772;28;20039;-59
2023/04/13 01:11:04;;;;;;;6.28;1.35;;;6.40;99.90;;;;;;5111195;28;20387;-59
2023/04/13 01:13:51;;;;;;;11.52;1.73;;;6.30;99.90;;;;;;5086569;28;20044;-59
2023/04/13 01:16:24;;;;;;;10.73;1.35;;;6.30;99.90;;;;;;5108989;28;20058;-58
2023/04/13 01:18:53;;;;;;;24.35;2.05;;;6.30;99.90;;;;;;5109590;28;20051;-59
2023/04/13 01:21:24;;;;;;;14.75;1.35;;;6.30;99.90;;;;;;5109738;28;20054;-59
2023/04/13 01:24:19;;;;;;;8.35;1.38;;;6.30;99.90;;;;;;5101214;28;20039;-60
2023/04/13 01:26:57;;;;;;;6.38;1.40;;;6.30;99.90;;;;;;5110824;28;20044;-59
2023/04/13 01:29:26;;;;;;;10.05;1.38;;;6.30;99.90;;;;;;5110386;28;20044;-58
2023/04/13 01:31:55;;;;;;;6.60;1.43;;;6.40;99.90;;;;;;5083144;28;20048;-59
2023/04/13 01:34:24;;;;;;;8.48;1.08;;;6.30;99.90;;;;;;5100274;28;20051;-59
2023/04/13 01:36:52;;;;;;;9.95;1.00;;;6.40;99.90;;;;;;5114043;28;20047;-59
2023/04/13 01:39:20;;;;;;;12.68;2.38;;;6.30;99.90;;;;;;5112664;28;20050;-59
2023/04/13 01:41:56;;;;;;;9.95;1.25;;;6.30;99.90;;;;;;5112567;28;20474;-59
2023/04/13 01:44:28;;;;;;;7.53;1.20;;;6.40;99.90;;;;;;5077179;28;20044;-60
2023/04/13 01:47:12;;;;;;;12.38;1.20;;;6.40;99.90;;;;;;5107497;28;20044;-58
2023/04/13 01:50:25;;;;;;;14.32;1.50;;;6.30;99.90;;;;;;5109590;28;20059;-59
2023/04/13 01:53:10;;;;;;;9.48;0.98;;;6.40;99.90;;;;;;5095445;28;20043;-58
2023/04/13 01:55:43;;;;;;;14.60;1.83;;;6.30;99.90;;;;;;5093518;28;20483;-58
2023/04/13 01:58:13;;;;;;;13.23;1.90;;;6.40;99.90;;;;;;5095063;28;20039;-58
2023/04/13 02:00:44;;;;;;;13.60;1.52;;;6.40;99.90;;;;;;5095447;28;20040;-58
2023/04/13 02:03:14;;;;;;;14.52;1.90;;;6.30;99.90;;;;;;5095812;28;20035;-58
2023/04/13 02:05:42;;;;;;;6.82;0.95;;;6.40;99.90;;;;;;5094443;28;20054;-58
2023/04/13 02:08:10;;;;;;;8.23;1.05;;;6.40;99.90;;;;;;5094550;28;20043;-58
2023/04/13 02:10:44;;;;;;;10.68;1.17;;;6.40;99.90;;;;;;5112231;28;20036;-58
2023/04/13 02:13:12;;;;;;;8.90;1.60;;;6.40;99.90;;;;;;5094597;28;20056;-59
2023/04/13 02:15:41;;;;;;;5.25;0.70;;;6.40;99.90;;;;;;5113279;28;20043;-59
2023/04/13 02:18:10;;;;;;;5.40;1.20;;;6.40;99.90;;;;;;5095360;28;20046;-58
2023/04/13 02:20:42;;;;;;;9.20;1.08;;;6.40;99.90;;;;;;5095141;28;20043;-59
2023/04/13 02:23:13;;;;;;;10.25;1.08;;;6.40;99.90;;;;;;5095167;28;20038;-57
2023/04/13 02:25:43;;;;;;;6.68;0.77;;;6.40;99.90;;;;;;5111966;28;20066;-58
2023/04/13 02:28:16;;;;;;;16.48;1.50;;;6.40;99.90;;;;;;5087060;28;20059;-58
2023/04/13 02:30:45;;;;;;;2.95;1.05;;;6.40;99.90;;;;;;5077288;28;20040;-58
2023/04/13 02:33:13;;;;;;;9.48;1.25;;;6.30;99.90;;;;;;5092105;28;20502;-59
2023/04/13 02:35:41;;;;;;;5.90;1.08;;;6.40;99.90;;;;;;5074349;28;20052;-58
2023/04/13 02:38:10;;;;;;;10.07;1.33;;;6.40;99.90;;;;;;5074777;28;20487;-59
2023/04/13 02:40:41;;;;;;;6.45;0.93;;;6.40;99.90;;;;;;5089662;28;20047;-59
2023/04/13 02:43:11;;;;;;;6.70;1.60;;;6.40;99.90;;;;;;5094626;28;20055;-60
2023/04/13 02:45:41;;;;;;;6.57;1.00;;;6.40;99.90;;;;;;5094598;28;20039;-60
2023/04/13 02:48:12;;;;;;;5.25;1.17;;;6.40;99.90;;;;;;5091309;28;20032;-60
2023/04/13 02:50:40;;;;;;;7.20;0.98;;;6.40;99.90;;;;;;5091090;28;20040;-60
2023/04/13 02:53:14;;;;;;;11.23;1.25;;;6.40;99.90;;;;;;5057698;28;20061;-60
2023/04/13 02:55:43;;;;;;;8.20;0.90;;;6.40;99.90;;;;;;5081224;28;20051;-60
2023/04/13 02:58:13;;;;;;;4.55;0.73;;;6.40;99.90;;;;;;5091082;28;20404;-60
2023/04/13 03:00:47;;;;;;;5.80;1.10;;;6.40;99.90;;;;;;5073960;28;20059;-60
2023/04/13 03:03:19;;;;;;;6.50;0.98;;;6.40;99.90;;;;;;5057549;28;20054;-59
2023/04/13 03:05:49;;;;;;;8.27;0.77;;;6.40;99.90;;;;;;5057164;28;20048;-60
2023/04/13 03:08:21;;;;;;;8.52;1.38;;;6.40;99.90;;;;;;5090687;28;20036;-60
2023/04/13 03:10:59;;;;;;;11.35;0.95;;;6.50;99.90;;;;;;5082309;28;20043;-59
2023/04/13 03:13:27;;;;;;;8.10;0.93;;;6.50;99.90;;;;;;5094097;28;20043;-59
2023/04/13 03:15:59;;;;;;;17.17;1.65;;;6.40;99.90;;;;;;5111284;28;20043;-60
2023/04/13 03:18:27;;;;;;;;;;;6.40;99.90;;;;;;5112972;28;20051;-59
2023/04/13 03:20:55;;;;;;;5.30;0.98;;;6.40;99.90;;;;;;5094053;28;19919;-59
2023/04/13 03:23:27;;;;;;;3.53;0.93;;;6.40;99.90;;;;;;5097916;28;20048;-60
2023/04/13 03:25:55;;;;;;;6.82;1.27;;;6.40;99.90;;;;;;5089540;28;20056;-59
2023/04/13 03:28:23;;;;;;;5.43;0.95;;;6.40;99.90;;;;;;5091929;28;20470;-59
2023/04/13 03:30:51;;;;;;;7.53;0.73;;;6.40;99.90;;;;;;5093898;28;20051;-59
2023/04/13 03:33:20;;;;;;;5.53;0.60;;;6.40;99.90;;;;;;5093866;28;20044;-60
2023/04/13 03:35:47;;;;;;;12.00;0.77;;;6.40;99.90;;;;;;5093650;28;20043;-59
2023/04/13 03:38:23;;;;;;;6.72;1.27;;;6.50;99.90;;;;;;5093901;28;20054;-59
2023/04/13 03:40:52;;;;;;;9.10;1.05;;;6.40;99.90;;;;;;5093747;28;20044;-59
2023/04/13 03:43:20;;;;;;;6.53;1.08;;;6.40;99.90;;;;;;5092920;28;20051;-59
2023/04/13 03:45:58;;;;;;;4.55;1.00;;;6.40;99.90;;;;;;5092665;28;20039;-59
2023/04/13 03:48:26;;;;;;;8.23;0.80;;;6.40;99.90;;;;;;5111976;28;20047;-59
2023/04/13 03:50:55;;;;;;;6.82;1.08;;;6.40;99.90;;;;;;5093585;28;20048;-59
2023/04/13 03:53:27;;;;;;;5.55;1.08;;;6.40;99.90;;;;;;5093946;28;20035;-59
2023/04/13 03:55:56;;;;;;;11.13;1.95;;;6.40;99.90;;;;;;5107393;28;20044;-59
2023/04/13 03:58:24;;;;;;;6.10;0.73;;;6.40;99.90;;;;;;5083380;28;20035;-60
2023/04/13 04:00:51;;;;;;;13.57;1.00;;;6.30;99.90;;;;;;5092755;28;20048;-60
2023/04/13 04:03:34;;;;;;;7.65;0.90;;;6.30;99.90;;;;;;5093578;28;20044;-59
2023/04/13 04:06:07;;;;;;;7.50;1.08;;;6.20;99.90;;;;;;5111746;28;20043;-60
2023/04/13 04:08:36;;;;;;;11.25;0.90;;;6.10;99.90;;;;;;5110700;28;20125;-59
2023/04/13 04:11:09;;;;;;;8.40;0.98;;;6.10;99.90;;;;;;5094273;28;20043;-59
2023/04/13 04:13:36;;;;;;;8.40;1.05;;;6.00;99.90;;;;;;5093305;28;20051;-59
2023/04/13 04:16:10;;;;;;;9.20;0.95;;;6.00;99.90;;;;;;5108429;28;20043;-60
2023/04/13 04:18:43;;;;;;;4.32;0.93;;;6.00;99.90;;;;;;5093638;28;20043;-59
2023/04/13 04:21:15;;;;;;;6.47;1.00;;;5.90;99.90;;;;;;5093440;28;20516;-60
2023/04/13 04:23:44;;;;;;;5.25;0.85;;;5.90;99.90;;;;;;5093387;28;20044;-59
2023/04/13 04:26:13;;;;;;;11.15;1.17;;;5.90;99.90;;;;;;5089372;28;20052;-58
2023/04/13 04:28:49;;;;;;;4.07;0.70;;;5.80;99.90;;;;;;5073239;28;20531;-58
2023/04/13 04:31:20;;;;;;;4.53;0.90;;;5.80;99.90;;;;;;5095791;28;20044;-58
2023/04/13 04:33:53;;;;;;;4.93;0.88;;;5.80;99.90;;;;;;5093424;28;20073;-59
2023/04/13 04:36:23;;;;;;;12.73;2.30;;;5.80;99.90;;;;;;5093203;28;21076;-57
2023/04/13 04:39:00;;;;;;;7.05;1.00;;;5.80;99.90;;;;;;5100022;28;20044;-58
2023/04/13 04:41:36;;;;;;;4.63;1.17;;;5.80;99.90;;;;;;5093773;28;20059;-59
2023/04/13 04:44:07;;;;;;;4.68;1.00;;;5.70;99.90;;;;;;5094951;28;20044;-59
2023/04/13 04:46:42;;;;;;;9.52;1.48;;;5.70;99.90;;;;;;5076759;28;20451;-59
2023/04/13 04:49:13;;;;;;;7.45;1.33;;;5.60;99.90;;;;;;5072027;28;20063;-59
2023/04/13 04:51:41;;;;;;;6.78;1.27;;;5.60;99.90;;;;;;5089698;28;20047;-59
2023/04/13 04:54:12;;;;;;;14.00;1.40;;;5.60;99.90;;;;;;5073128;28;20523;-59
2023/04/13 04:56:40;;;;;;;7.93;0.85;;;5.50;99.90;;;;;;5091776;28;20061;-59
2023/04/13 04:59:09;;;;;;;3.53;0.90;;;5.30;99.90;;;;;;5085664;28;20048;-58
2023/04/13 05:01:48;;;;;;;7.18;0.60;;;5.40;99.90;;;;;;5073497;28;20504;-59
2023/04/13 05:04:16;;;;;;;;;;;5.30;99.90;;;;;;5070278;28;20318;-60
2023/04/13 05:06:43;;;;;;;6.25;0.77;;;5.20;99.90;;;;;;5088907;28;19919;-58
2023/04/13 05:09:17;;;;;;;5.20;0.98;;;5.10;99.90;;;;;;5073045;28;20072;-58
2023/04/13 05:11:53;;;;;;;8.30;1.00;;;5.10;99.90;;;;;;5071559;28;20036;-58
2023/04/13 05:14:21;;;;;;;5.03;0.95;;;5.00;99.90;;;;;;5106473;28;20203;-59
2023/04/13 05:16:50;;;;;;;4.78;0.80;;;5.00;99.90;;;;;;5091066;28;20517;-60
2023/04/13 05:19:38;;;;;;;5.28;0.80;;;5.00;99.90;;;;;;5110222;28;20071;-59
2023/04/13 05:22:19;;;;;;;6.07;1.33;;;4.90;99.90;;;;;;5081502;28;20402;-59
2023/04/13 05:24:52;;;;;;;4.95;0.90;;;4.90;99.90;;;;;;5093859;28;20048;-58
2023/04/13 05:27:21;;;;;;;6.15;1.20;;;4.90;99.90;;;;;;5092684;28;20040;-60
2023/04/13 05:29:50;;;;;;;5.88;1.45;;;4.90;99.90;;;;;;5092960;28;20047;-59
2023/04/13 05:32:21;;;;;;;9.20;1.35;;;4.90;99.90;;;;;;5089048;28;20048;-58
2023/04/13 05:34:52;;;;;;;10.32;1.50;;;4.90;99.90;;;;;;5108037;28;20194;-60
2023/04/13 05:37:22;;;;;;;8.32;1.25;;;4.90;99.90;;;;;;5104837;28;20048;-59
2023/04/13 05:39:50;;;;;;;3.13;0.82;;;4.90;99.90;;;;;;5101033;28;20040;-58
2023/04/13 05:42:23;;;;;;;14.93;1.52;;;4.90;99.90;;;;;;5091115;28;20047;-60
2023/04/13 05:44:51;;;;;;;7.82;0.88;;;4.90;99.90;;;;;;5089079;28;20040;-60
2023/04/13 05:47:22;;;;;;;5.15;1.23;;;4.80;99.90;;;;;;5105822;28;20044;-58
2023/04/13 05:49:55;;;;;;;6.75;1.10;;;4.80;99.90;;;;;;5073910;28;20058;-60
2023/04/13 05:52:24;;;;;;;2.65;0.60;;;4.80;99.90;;;;;;5077914;28;20038;-58
2023/04/13 05:54:52;;;;;;;5.90;1.17;;;4.80;99.90;;;;;;5086095;28;20040;-59
2023/04/13 05:57:21;;;;;;;16.63;2.85;;;4.80;99.90;;;;;;5106751;28;20055;-59
2023/04/13 05:59:52;;;;;;;12.52;1.25;;;6.00;99.90;;;;;;5091984;28;20036;-59
2023/04/13 06:02:27;;;;;;;14.80;2.22;;;4.80;99.90;;;;;;5088775;28;20043;-57
2023/04/13 06:04:55;;;;;;;2.40;0.90;;;4.80;99.90;;;;;;5105949;28;20066;-58
2023/04/13 06:07:24;;;;;;;8.15;0.93;;;4.90;99.90;;;;;;5107827;28;20609;-59
2023/04/13 06:09:52;;;;;;;8.88;1.67;;;4.80;99.90;;;;;;5089975;28;20487;-59
2023/04/13 06:12:21;;;;;;;5.47;1.05;;;4.80;99.90;;;;;;5093463;28;20051;-59
2023/04/13 06:14:48;;;;;;;8.85;1.27;;;4.90;99.90;;;;;;5110196;28;20056;-59
2023/04/13 06:17:16;;;;;;;18.05;2.22;;;4.90;99.90;;;;;;5091708;28;20404;-59
2023/04/13 06:19:44;;;;;;;5.65;1.20;;;5.00;99.90;;;;;;5075773;28;20040;-58
2023/04/13 06:22:11;;;;;;;7.60;1.55;;;5.00;99.90;;;;;;5093462;28;20039;-57
2023/04/13 06:24:40;;;;;;;4.88;1.55;;;5.00;99.90;;;;;;5091639;28;20032;-59
2023/04/13 06:27:12;;;;;;;10.32;1.35;;;5.10;99.90;;;;;;5098510;28;20063;-60
2023/04/13 06:29:44;;;;;;;4.55;0.88;;;5.10;99.90;;;;;;5091801;28;20051;-59
2023/04/13 06:32:12;;;;;;;12.43;1.38;;;5.10;99.90;;;;;;5106830;28;20043;-60
2023/04/13 06:34:44;;;;;;;8.20;2.30;;;5.20;99.90;;;;;;5108132;28;20047;-60
2023/04/13 06:37:12;;;;;;;6.60;1.20;;;5.10;99.90;;;;;;5088381;28;20067;-59
2023/04/13 06:39:46;;;;;;;4.55;0.75;;;5.20;99.90;;;;;;5088132;28;20059;-58
2023/04/13 06:42:15;;;;;;;23.85;2.63;;;5.30;99.90;;;;;;5087703;28;20050;-59
2023/04/13 06:45:00;;;;;;;4.03;0.90;;;5.30;99.90;;;;;;5084167;28;20416;-60
2023/04/13 06:47:36;;;;;;;6.88;1.10;;;5.40;99.90;;;;;;5070905;28;20043;-59
2023/04/13 06:50:05;;;;;;;8.88;1.13;;;5.40;99.90;;;;;;5090886;28;20343;-59
2023/04/13 06:52:36;;;;;;;10.27;1.20;;;5.50;99.90;;;;;;5090894;28;20040;-58
2023/04/13 06:55:05;;;;;;;11.20;1.73;;;5.60;99.90;;;;;;5082711;28;20046;-59
2023/04/13 06:57:37;;;;;;;8.77;1.17;;;5.60;99.90;;;;;;5076119;28;20419;-59
2023/04/13 07:00:09;;;;;;;9.25;1.58;;;5.70;99.90;;;;;;5090598;28;20047;-60
2023/04/13 07:02:57;;;;;;;10.82;1.35;;;5.70;99.90;;;;;;5076048;28;20436;-59
2023/04/13 07:05:25;;;;;;;8.57;1.02;;;5.80;99.90;;;;;;5085389;28;20040;-59
2023/04/13 07:07:56;;;;;;;13.60;1.95;;;5.90;99.90;;;;;;5087435;28;20395;-59
2023/04/13 07:10:24;;;;;;;4.72;0.93;;;6.10;99.90;;;;;;5074075;28;20051;-57
2023/04/13 07:12:54;;;;;;;9.60;1.30;;;;;;;;;;5108731;28;20047;-60
2023/04/13 07:15:25;;;;;;;10.88;1.10;;;6.90;99.90;;;;;;5088652;28;20419;-59
2023/04/13 07:17:54;;;;;;;12.77;1.40;;;6.20;99.90;;;;;;5094664;28;20031;-58
2023/04/13 07:20:22;;;;;;;18.90;1.90;;;6.30;99.90;;;;;;5074017;28;20063;-59
2023/04/13 07:22:51;;;;;;;9.90;2.03;;;6.30;99.90;;;;;;5078045;28;20407;-59
2023/04/13 07:25:20;;;;;;;11.02;1.30;;;6.50;99.90;;;;;;5089985;28;20047;-59
2023/04/13 07:27:49;;;;;;;8.25;1.05;;;6.60;99.90;;;;;;5108398;28;20044;-59
2023/04/13 07:30:17;;;;;;;11.97;1.10;;;6.60;99.90;;;;;;5090812;28;20040;-59
2023/04/13 07:32:46;;;;;;;11.90;1.58;;;6.70;99.90;;;;;;5090823;28;20315;-58
2023/04/13 07:35:16;;;;;;;7.30;1.13;;;6.80;99.90;;;;;;5086703;28;20051;-58
2023/04/13 07:37:45;;;;;;;7.78;1.15;;;7.00;99.90;;;;;;5070342;28;20051;-58
2023/04/13 07:40:14;;;;;;;7.82;1.35;;;7.10;99.90;;;;;;5079167;28;20058;-57
2023/04/13 07:42:48;;;;;;;10.38;1.42;;;7.20;99.90;;;;;;5089868;28;20047;-58
2023/04/13 07:45:16;;;;;;;6.63;1.58;;;7.40;99.90;;;;;;5090868;28;20044;-58
2023/04/13 07:47:46;;;;;;;9.63;1.77;;;;;;;;;;5090974;28;20490;-59
2023/04/13 07:50:15;;;;;;;8.45;1.20;;;7.50;99.90;;;;;;5108058;28;20052;-58
2023/04/13 07:52:43;;;;;;;12.05;1.20;;;7.60;99.90;;;;;;5082558;28;20044;-58
2023/04/13 07:55:13;;;;;;;6.47;1.50;;;7.70;99.90;;;;;;5074280;28;20040;-57
2023/04/13 07:57:46;;;;;;;7.55;1.13;;;7.60;99.90;;;;;;5073141;28;20048;-57
2023/04/13 08:00:15;;;;;;;3.67;1.02;;;7.70;99.90;;;;;;5090129;28;20047;-58
2023/04/13 08:02:46;;;;;;;4.80;0.82;;;7.70;99.90;;;;;;5089495;28;20044;-58
2023/04/13 08:05:19;;;;;;;12.85;1.65;;;7.70;99.90;;;;;;5106593;28;20047;-57
2023/04/13 08:07:48;;;;;;;10.45;1.90;;;7.80;99.90;;;;;;5108220;28;20054;-59
2023/04/13 08:10:17;;;;;;;8.40;1.35;;;7.90;99.90;;;;;;5090273;28;20043;-58
2023/04/13 08:12:45;;;;;;;7.75;1.02;;;8.00;99.90;;;;;;5081508;28;20040;-58
2023/04/13 08:15:17;;;;;;;5.82;1.08;;;8.00;99.90;;;;;;5074009;28;20044;-59
2023/04/13 08:17:45;;;;;;;4.03;0.90;;;8.10;99.90;;;;;;5079517;28;20082;-59
2023/04/13 08:20:13;;;;;;;20.58;2.60;;;8.20;99.90;;;;;;5081582;28;20048;-58
2023/04/13 08:22:44;;;;;;;6.55;2.17;;;8.30;99.90;;;;;;5074238;28;20050;-58
2023/04/13 08:25:11;;;;;;;7.43;0.88;;;8.40;99.90;;;;;;5094095;28;20059;-57
2023/04/13 08:27:40;;;;;;;5.00;1.10;;;8.40;99.90;;;;;;5093712;28;20040;-58
2023/04/13 08:30:10;;;;;;;7.00;1.33;;;8.50;99.90;;;;;;5089443;28;20044;-57
2023/04/13 08:32:48;;;;;;;5.68;0.77;;;8.50;99.90;;;;;;5079918;28;20047;-57
2023/04/13 08:35:17;;;;;;;8.48;0.80;;;8.60;99.90;;;;;;5090302;28;20051;-58
2023/04/13 08:37:45;;;;;;;12.95;1.25;;;8.60;99.90;;;;;;5079188;28;20043;-58
2023/04/13 08:40:17;;;;;;;11.57;1.08;;;8.70;99.90;;;;;;5071203;28;20062;-57
2023/04/13 08:42:45;;;;;;;;;;;8.70;99.90;;;;;;5097178;28;20043;-57
2023/04/13 08:45:14;;;;;;;5.90;0.90;;;8.70;99.90;;;;;;5073162;28;19919;-58
2023/04/13 08:47:48;;;;;;;4.18;0.90;;;8.70;99.90;;;;;;5090818;28;20043;-57
2023/04/13 08:50:20;;;;;;;5.63;1.02;;;8.70;99.90;;;;;;5080950;28;20063;-58
2023/04/13 08:52:51;;;;;;;5.00;0.80;;;8.80;99.90;;;;;;5072965;28;20483;-56
2023/04/13 08:55:21;;;;;;;7.85;0.93;;;8.80;99.90;;;;;;5056789;28;20059;-57
2023/04/13 08:57:54;;;;;;;9.80;1.00;;;8.80;99.90;;;;;;5078899;28;20051;-57
2023/04/13 09:00:22;;;;;;;11.25;1.00;;;8.80;99.90;;;;;;5073227;28;20051;-57
2023/04/13 09:03:01;;;;;;;3.83;0.70;;;8.80;99.90;;;;;;5103489;28;20039;-60
2023/04/13 09:05:41;;;;;;;7.25;1.00;;;8.80;99.90;;;;;;5080389;28;20051;-58
2023/04/13 09:08:12;;;;;;;8.18;0.90;;;8.80;99.90;;;;;;5082223;28;20510;-58
2023/04/13 09:10:43;;;;;;;5.55;1.35;;;8.80;99.90;;;;;;5093460;28;20044;-57
2023/04/13 09:13:11;;;;;;;5.43;1.42;;;8.70;99.90;;;;;;5111199;28;20051;-57
2023/04/13 09:15:40;;;;;;;8.25;1.20;;;8.70;99.90;;;;;;5098281;28;20048;-58
2023/04/13 09:18:18;;;;;;;11.18;2.25;;;8.70;99.90;;;;;;5079744;28;20047;-58
2023/04/13 09:20:59;;;;;;;7.93;0.95;;;8.70;99.90;;;;;;5102472;28;20052;-57
2023/04/13 09:23:27;;;;;;;4.35;1.40;;;8.90;99.90;;;;;;5092860;28;20048;-57
2023/04/13 09:26:08;;;;;;;3.97;1.13;;;9.10;99.90;;;;;;5110314;28;20043;-58
2023/04/13 09:28:50;;;;;;;7.15;0.80;;;9.30;99.90;;;;;;5110426;28;20047;-58
2023/04/13 09:31:23;;;;;;;2.25;0.43;;;9.50;99.90;;;;;;5103008;28;20047;-57
2023/04/13 09:33:51;;;;;;;7.35;0.73;;;9.50;99.90;;;;;;5106790;28;20048;-58
2023/04/13 09:36:21;;;;;;;4.68;0.88;;;9.60;99.90;;;;;;5108799;28;20047;-58
2023/04/13 09:38:54;;;;;;;4.30;0.88;;;9.60;99.90;;;;;;5110363;28;20511;-58
2023/04/13 09:41:32;;;;;;;2.80;0.55;;;9.60;99.90;;;;;;5110771;28;20058;-59
2023/04/13 09:44:01;;;;;;;6.80;0.90;;;9.70;99.90;;;;;;5110222;28;20043;-57
2023/04/13 09:46:29;;;;;;;1.38;0.63;;;9.80;99.90;;;;;;5105177;28;20415;-57
2023/04/13 09:49:01;;;;;;;6.10;0.93;;;9.80;99.90;;;;;;5078169;28;20409;-58
2023/04/13 09:51:40;;;;;;;7.35;0.80;;;9.90;99.90;;;;;;5103122;28;20070;-58
2023/04/13 09:54:10;;;;;;;5.70;0.70;;;10.10;99.90;;;;;;5092271;28;20422;-58
2023/04/13 09:56:45;;;;;;;;;;;10.20;99.90;;;;;;5109580;28;20048;-58
2023/04/13 09:59:13;;;;;;;8.68;1.23;;;10.20;99.90;;;;;;5108021;28;19920;-56
2023/04/13 10:01:42;;;;;;;3.42;0.63;;;10.40;99.90;;;;;;5110276;28;20051;-58
2023/04/13 10:04:10;;;;;;;4.85;1.02;;;10.20;99.90;;;;;;5110144;28;20040;-57
2023/04/13 10:06:39;;;;;;;5.18;1.50;;;10.20;99.90;;;;;;5109629;28;20048;-58
2023/04/13 10:09:09;;;;;;;3.35;0.85;;;10.30;99.90;;;;;;5108982;28;20048;-58
2023/04/13 10:11:42;;;;;;;2.88;0.57;;;10.30;99.90;;;;;;5110278;28;20047;-57
2023/04/13 10:14:18;;;;;;;4.53;0.47;;;10.30;99.90;;;;;;5109938;28;20419;-56
2023/04/13 10:17:20;;;;;;;5.97;0.88;;;10.20;99.90;;;;;;5108906;28;20039;-58
2023/04/13 10:19:50;;;;;;;5.30;0.88;;;10.00;99.90;;;;;;5105410;28;20058;-57
2023/04/13 10:22:21;;;;;;;2.75;0.57;;;10.00;99.90;;;;;;5091636;28;20051;-58
2023/04/13 10:24:54;;;;;;;7.15;0.88;;;10.00;99.90;;;;;;5108822;28;20062;-58
2023/04/13 10:27:26;;;;;;;3.85;0.63;;;10.10;99.90;;;;;;5110110;28;20050;-58
2023/04/13 10:29:54;;;;;;;4.18;0.98;;;10.10;99.90;;;;;;5110197;28;20559;-58
2023/04/13 10:32:26;;;;;;;4.53;0.90;;;10.20;99.90;;;;;;5109757;28;20316;-57
2023/04/13 10:34:54;;;;;;;2.17;0.50;;;10.20;99.90;;;;;;5092149;28;20040;-58
2023/04/13 10:37:26;;;;;;;1.30;0.40;;;10.40;99.90;;;;;;5109174;28;20518;-58
2023/04/13 10:40:05;;;;;;;3.60;0.90;;;10.60;99.90;;;;;;5109757;28;20052;-57
2023/04/13 10:42:43;;;;;;;4.25;0.68;;;10.70;99.90;;;;;;5106131;28;20046;-57
2023/04/13 10:45:25;;;;;;;3.28;0.80;;;10.80;99.90;;;;;;5109681;28;20039;-57
2023/04/13 10:47:54;;;;;;;5.18;0.82;;;10.80;99.90;;;;;;5085971;28;20040;-58
2023/04/13 10:50:23;;;;;;;5.68;0.73;;;10.80;99.90;;;;;;5093698;28;20046;-58
2023/04/13 10:53:04;;;;;;;5.05;1.02;;;10.80;99.90;;;;;;5091105;28;20055;-58
2023/04/13 10:55:33;;;;;;;7.88;0.60;;;10.90;99.90;;;;;;5091254;28;20048;-59
2023/04/13 10:58:01;;;;;;;4.18;0.50;;;11.00;99.90;;;;;;5109020;28;20137;-58
2023/04/13 11:00:31;;;;;;;20.88;3.33;;;11.10;99.90;;;;;;5090063;28;20062;-59
2023/04/13 11:03:15;;;;;;;5.97;1.00;;;11.20;99.90;;;;;;5109150;28;20068;-58
2023/04/13 11:05:46;;;;;;;4.85;0.70;;;11.40;99.90;;;;;;5108764;28;20043;-58
2023/04/13 11:08:19;;;;;;;2.85;0.80;;;11.70;99.90;;;;;;5108817;28;20043;-58
2023/04/13 11:10:54;;;;;;;2.35;0.68;;;11.90;99.90;;;;;;5091451;28;20048;-59
2023/04/13 11:13:25;;;;;;;3.17;0.40;;;12.10;99.90;;;;;;5108603;28;20044;-57
2023/04/13 11:16:03;;;;;;;4.90;0.55;;;12.00;99.90;;;;;;5089834;28;20051;-58
2023/04/13 11:18:31;;;;;;;9.98;0.65;;;12.00;99.90;;;;;;5105229;28;20050;-58
2023/04/13 11:21:01;;;;;;;5.03;0.50;;;11.90;99.90;;;;;;5105573;28;20518;-59
2023/04/13 11:23:34;;;;;;;3.55;0.80;;;11.70;99.90;;;;;;5106704;28;20058;-59
2023/04/13 11:26:03;;;;;;;2.95;0.60;;;11.60;99.90;;;;;;5090305;28;20055;-57
2023/04/13 11:28:39;;;;;;;6.90;0.43;;;11.50;99.90;;;;;;5108334;28;20036;-57
2023/04/13 11:31:07;;;;;;;4.32;0.50;;;11.60;99.90;;;;;;5109069;28;20403;-57
2023/04/13 11:33:35;;;;;;;5.88;1.02;;;11.70;99.90;;;;;;5107942;28;20039;-57
2023/04/13 11:36:10;;;;;;;3.83;0.40;;;11.70;99.90;;;;;;5083648;28;20055;-58
2023/04/13 11:38:40;;;;;;;2.55;0.43;;;11.70;99.90;;;;;;5100975;28;20847;-58
2023/04/13 11:41:08;;;;;;;3.70;0.65;;;11.60;99.90;;;;;;5105628;28;20043;-57
2023/04/13 11:43:50;;;;;;;2.55;0.60;;;11.60;99.90;;;;;;5102989;28;20044;-57
2023/04/13 11:46:23;;;;;;;9.52;0.50;;;11.80;99.90;;;;;;5106086;28;20067;-58
2023/04/13 11:48:52;;;;;;;3.17;0.75;;;11.80;99.90;;;;;;5080624;28;20063;-58
2023/04/13 11:51:21;;;;;;;7.00;0.90;;;11.90;99.90;;;;;;5096390;28;20046;-58
2023/04/13 11:53:50;;;;;;;4.60;0.43;;;11.90;99.90;;;;;;5108448;28;20050;-58
2023/04/13 11:56:18;;;;;;;9.88;0.68;;;12.20;99.90;;;;;;5106946;28;20056;-58
2023/04/13 11:58:50;;;;;;;6.68;0.60;;;12.60;99.90;;;;;;5089969;28;20498;-58
2023/04/13 12:01:21;;;;;;;4.20;0.70;;;13.00;99.90;;;;;;5108689;28;20047;-58
2023/04/13 12:04:05;;;;;;;2.50;0.35;;;13.30;97.80;;;;;;5098415;28;20045;-57
2023/04/13 12:06:40;;;;;;;5.05;0.52;;;13.20;97.60;;;;;;5096140;28;20498;-59
2023/04/13 12:09:12;;;;;;;3.35;0.85;;;;;;;;;;5108367;28;20048;-56
2023/04/13 12:11:48;;;;;;;3.65;0.50;;;12.70;97.40;;;;;;5108259;28;20043;-57
2023/04/13 12:14:31;;;;;;;7.43;1.23;;;12.20;98.60;;;;;;5069702;28;20044;-56
2023/04/13 12:17:18;;;;;;;3.80;0.50;;;12.10;98.20;;;;;;5089471;28;20494;-58
2023/04/13 12:20:14;;;;;;;8.60;0.98;;;11.80;99.70;;;;;;5108347;28;20043;-57
2023/04/13 12:22:42;;;;;;;3.15;0.40;;;11.70;99.90;;;;;;5107674;28;20051;-58
2023/04/13 12:25:29;;;;;;;5.32;0.85;;;11.90;99.90;;;;;;5108381;28;20043;-59
2023/04/13 12:28:02;;;;;;;6.35;0.30;;;12.10;99.90;;;;;;5108058;28;20040;-58
2023/04/13 12:30:31;;;;;;;7.20;0.60;;;12.10;99.90;;;;;;5107208;28;20051;-57
2023/04/13 12:32:59;;;;;;;8.27;1.65;;;12.40;99.90;;;;;;5107857;28;20047;-58
2023/04/13 12:35:27;;;;;;;1.38;0.60;;;12.70;99.90;;;;;;5107973;28;20044;-58
2023/04/13 12:37:54;;;;;;;1.90;0.50;;;12.70;99.90;;;;;;5107432;28;20533;-58
2023/04/13 12:40:22;;;;;;;4.07;0.60;;;12.50;99.90;;;;;;5108092;28;20047;-58
2023/04/13 12:42:50;;;;;;;12.73;1.20;;;12.20;99.90;;;;;;5089400;28;20054;-58
2023/04/13 12:45:18;;;;;;;4.93;0.75;;;12.00;99.90;;;;;;5106653;28;20047;-59
2023/04/13 12:47:45;;;;;;;4.63;0.70;;;12.20;99.90;;;;;;5107887;28;20055;-58
2023/04/13 12:50:13;;;;;;;2.05;0.52;;;12.70;99.90;;;;;;5108278;28;20414;-57
2023/04/13 12:52:42;;;;;;;2.90;0.60;;;12.80;99.90;;;;;;5085943;28;20043;-58
2023/04/13 12:55:10;;;;;;;4.97;0.65;;;12.80;99.90;;;;;;5107796;28;20046;-58
2023/04/13 12:57:38;;;;;;;17.85;7.90;;;12.80;99.90;;;;;;5107490;28;20414;-58
2023/04/13 13:00:09;;;;;;;5.30;1.02;;;12.90;99.90;;;;;;5108618;28;20047;-58
2023/04/13 13:02:37;;;;;;;4.22;0.55;;;13.40;99.90;;;;;;5110336;28;20498;-56
2023/04/13 13:05:05;;;;;;;3.78;0.38;;;13.80;98.30;;;;;;5107078;28;20113;-59
2023/04/13 13:07:32;;;;;;;5.60;2.72;;;13.80;96.50;;;;;;5105162;28;20044;-59
2023/04/13 13:10:01;;;;;;;6.18;1.17;;;13.60;98.10;;;;;;5111523;28;20044;-58
2023/04/13 13:12:31;;;;;;;2.97;0.60;;;13.60;99.10;;;;;;5111207;28;20047;-59
2023/04/13 13:15:00;;;;;;;3.95;0.45;;;14.00;99.90;;;;;;5111277;28;20051;-59
2023/04/13 13:17:28;;;;;;;6.25;0.80;;;14.60;95.60;;;;;;5073633;28;20424;-59